createdAt,value
2023-04-15T00:01:10.235Z,99078.94
2023-04-15T00:03:37.117Z,99060.78
2023-04-15T00:06:04.162Z,99068.16
2023-04-15T00:08:31.159Z,99073.50
2023-04-15T00:11:02.941Z,99056.84
2023-04-15T00:13:29.892Z,99058.31
2023-04-15T00:15:56.624Z,99045.00
2023-04-15T00:18:24.775Z,99043.09
2023-04-15T00:20:52.698Z,99041.41
2023-04-15T00:23:19.615Z,99055.75
2023-04-15T00:25:47.037Z,99049.53
2023-04-15T00:28:14.018Z,99039.63
2023-04-15T00:30:40.775Z,99043.81
2023-04-15T00:33:08.036Z,99046.94
2023-04-15T00:35:34.822Z,99037.75
2023-04-15T00:38:01.502Z,99040.16
2023-04-15T00:40:28.146Z,99044.34
2023-04-15T00:42:55.191Z,99034.66
2023-04-15T00:45:22.016Z,99038.28
2023-04-15T00:47:48.760Z,99038.56
2023-04-15T00:50:15.452Z,99025.88
2023-04-15T00:52:42.137Z,99036.69
2023-04-15T00:55:11.390Z,99038.34
2023-04-15T00:57:39.672Z,99035.56
2023-04-15T01:00:08.170Z,99039.16
2023-04-15T01:02:36.558Z,99024.59
2023-04-15T01:05:04.476Z,99028.31
2023-04-15T01:07:32.043Z,99030.75
2023-04-15T01:09:59.061Z,99028.31
2023-04-15T01:12:27.361Z,99030.75
2023-04-15T01:14:55.472Z,99047.00
2023-04-15T01:17:22.286Z,99038.34
2023-04-15T01:19:49.011Z,99036.78
2023-04-15T01:22:16.286Z,99049.03
2023-04-15T01:24:52.352Z,99045.91
2023-04-15T01:27:19.539Z,99047.53
2023-04-15T01:29:46.449Z,99036.19
2023-04-15T01:32:13.082Z,99026.94
2023-04-15T01:34:39.737Z,99002.09
2023-04-15T01:37:06.443Z,99001.31
2023-04-15T01:39:33.718Z,99016.03
2023-04-15T01:42:00.403Z,99003.97
2023-04-15T01:44:27.751Z,99036.72
2023-04-15T01:46:54.599Z,99063.06
2023-04-15T01:49:21.252Z,99042.41
2023-04-15T01:51:48.148Z,99042.84
2023-04-15T01:54:14.866Z,99051.97
2023-04-15T01:56:41.505Z,99043.03
2023-04-15T01:59:08.727Z,99031.25
2023-04-15T02:01:35.424Z,99030.72
2023-04-15T02:04:02.182Z,99030.59
2023-04-15T02:06:28.939Z,99021.81
2023-04-15T02:08:56.009Z,99061.56
2023-04-15T02:11:23.248Z,99060.19
2023-04-15T02:13:49.935Z,99028.31
2023-04-15T02:16:20.100Z,99017.97
2023-04-15T02:18:47.554Z,99019.25
2023-04-15T02:21:15.056Z,99025.63
2023-04-15T02:23:41.743Z,99029.13
2023-04-15T02:26:08.426Z,99020.66
2023-04-15T02:28:35.195Z,99020.78
2023-04-15T02:31:09.695Z,99033.72
2023-04-15T02:33:37.881Z,99030.53
2023-04-15T02:36:04.961Z,99007.66
2023-04-15T02:38:32.142Z,99025.75
2023-04-15T02:40:58.845Z,99018.22
2023-04-15T02:43:25.589Z,99019.00
2023-04-15T02:45:52.416Z,99029.94
2023-04-15T02:48:20.368Z,99029.56
2023-04-15T02:50:47.986Z,99032.00
2023-04-15T02:53:18.807Z,99029.09
2023-04-15T02:55:46.231Z,99015.53
2023-04-15T02:58:12.904Z,99027.47
2023-04-15T03:00:39.952Z,99026.78
2023-04-15T03:03:06.976Z,99037.66
2023-04-15T03:05:33.846Z,99038.47
2023-04-15T03:08:01.407Z,99035.13
2023-04-15T03:10:28.537Z,99038.03
2023-04-15T03:12:55.709Z,99022.97
2023-04-15T03:15:22.531Z,99020.53
2023-04-15T03:17:49.766Z,99024.09
2023-04-15T03:20:17.142Z,99017.03
2023-04-15T03:22:43.932Z,99022.63
2023-04-15T03:25:10.767Z,99031.41
2023-04-15T03:27:38.563Z,99023.31
2023-04-15T03:30:06.829Z,99016.69
2023-04-15T03:32:33.757Z,99015.44
2023-04-15T03:35:00.402Z,99026.09
2023-04-15T03:37:27.562Z,99026.66
2023-04-15T03:39:54.200Z,99031.41
2023-04-15T03:42:21.019Z,99033.47
2023-04-15T03:44:47.750Z,99032.91
2023-04-15T03:47:14.397Z,99014.28
2023-04-15T03:49:41.496Z,99013.56
2023-04-15T03:52:08.172Z,99021.44
2023-04-15T03:54:34.834Z,99031.63
2023-04-15T03:57:01.794Z,99029.41
2023-04-15T03:59:28.464Z,99041.09
2023-04-15T04:01:55.142Z,99044.78
2023-04-15T04:04:21.939Z,99052.97
2023-04-15T04:06:48.727Z,99050.00
2023-04-15T04:09:15.562Z,99061.34
2023-04-15T04:11:42.427Z,99064.13
2023-04-15T04:14:09.133Z,99072.78
2023-04-15T04:16:35.938Z,99083.88
2023-04-15T04:19:02.878Z,99078.25
2023-04-15T04:21:29.998Z,99067.16
2023-04-15T04:23:56.906Z,99069.09
2023-04-15T04:26:23.559Z,99067.06
2023-04-15T04:28:50.184Z,99065.22
2023-04-15T04:31:17.157Z,99072.13
2023-04-15T04:33:43.865Z,99075.25
2023-04-15T04:36:10.584Z,99078.78
2023-04-15T04:38:37.255Z,99068.50
2023-04-15T04:41:03.904Z,99065.06
2023-04-15T04:43:30.784Z,99058.56
2023-04-15T04:45:57.525Z,99053.13
2023-04-15T04:48:24.199Z,99067.97
2023-04-15T04:50:51.003Z,99052.94
2023-04-15T04:53:18.334Z,99039.09
2023-04-15T04:55:45.033Z,99052.53
2023-04-15T04:58:11.766Z,99065.63
2023-04-15T05:00:38.545Z,99058.81
2023-04-15T05:03:05.373Z,99064.38
2023-04-15T05:05:32.203Z,99069.69
2023-04-15T05:07:58.965Z,99071.22
2023-04-15T05:10:25.665Z,99059.47
2023-04-15T05:12:52.808Z,99054.13
2023-04-15T05:15:19.549Z,99051.66
2023-04-15T05:17:46.207Z,99042.75
2023-04-15T05:20:13.879Z,99065.34
2023-04-15T05:22:40.495Z,99079.72
2023-04-15T05:25:07.629Z,99076.25
2023-04-15T05:27:34.867Z,99071.47
2023-04-15T05:30:02.012Z,99075.97
2023-04-15T05:32:28.759Z,99082.66
2023-04-15T05:34:55.738Z,99075.59
2023-04-15T05:37:22.490Z,99074.09
2023-04-15T05:39:49.273Z,99070.13
2023-04-15T05:42:16.096Z,99090.41
2023-04-15T05:44:43.225Z,99089.19
2023-04-15T05:47:11.020Z,99107.41
2023-04-15T05:49:37.772Z,99112.44
2023-04-15T05:52:04.617Z,99110.06
2023-04-15T05:54:31.727Z,99113.78
2023-04-15T05:56:58.576Z,99109.31
2023-04-15T05:59:25.260Z,99103.31
2023-04-15T06:01:52.387Z,99107.50
2023-04-15T06:04:19.264Z,99103.09
2023-04-15T06:06:46.276Z,99100.91
2023-04-15T06:09:12.936Z,99109.94
2023-04-15T06:11:41.404Z,99119.94
2023-04-15T06:14:08.382Z,99107.13
2023-04-15T06:16:36.698Z,99105.16
2023-04-15T06:19:03.887Z,99119.66
2023-04-15T06:21:31.552Z,99132.28
2023-04-15T06:24:01.591Z,99145.28
2023-04-15T06:26:28.587Z,99152.91
2023-04-15T06:28:55.735Z,99152.44
2023-04-15T06:31:22.529Z,99147.16
2023-04-15T06:33:49.506Z,99170.91
2023-04-15T06:36:16.443Z,99170.56
2023-04-15T06:38:43.131Z,99167.81
2023-04-15T06:41:09.930Z,99166.41
2023-04-15T06:43:36.671Z,99166.97
2023-04-15T06:46:03.412Z,99169.53
2023-04-15T06:48:30.221Z,99171.66
2023-04-15T06:50:58.362Z,99182.44
2023-04-15T06:53:28.060Z,99166.19
2023-04-15T06:55:54.823Z,99172.69
2023-04-15T06:58:21.912Z,99183.56
2023-04-15T07:00:49.319Z,99176.75
2023-04-15T07:03:16.077Z,99200.88
2023-04-15T07:05:43.566Z,99212.56
2023-04-15T07:08:10.364Z,99196.78
2023-04-15T07:10:37.240Z,99214.94
2023-04-15T07:13:04.471Z,99213.06
2023-04-15T07:15:31.103Z,99218.88
2023-04-15T07:17:57.825Z,99219.47
2023-04-15T07:20:24.536Z,99222.25
2023-04-15T07:22:51.187Z,99225.72
2023-04-15T07:25:17.917Z,99232.72
2023-04-15T07:27:44.962Z,99235.16
2023-04-15T07:30:12.728Z,99240.91
2023-04-15T07:32:39.565Z,99242.69
2023-04-15T07:35:06.458Z,99240.72
2023-04-15T07:37:33.710Z,99249.59
2023-04-15T07:40:00.386Z,99252.13
2023-04-15T07:42:27.214Z,99263.75
2023-04-15T07:44:53.907Z,99261.91
2023-04-15T07:47:20.657Z,99263.56
2023-04-15T07:49:47.440Z,99266.53
2023-04-15T07:52:14.097Z,99264.16
2023-04-15T07:54:40.734Z,99260.75
2023-04-15T07:57:07.990Z,99249.97
2023-04-15T07:59:34.704Z,99225.31
2023-04-15T08:02:01.552Z,99289.69
2023-04-15T08:04:28.700Z,99287.25
2023-04-15T08:06:55.551Z,99281.78
2023-04-15T08:09:22.343Z,99297.81
2023-04-15T08:11:50.147Z,99290.81
2023-04-15T08:14:17.015Z,99304.13
2023-04-15T08:16:44.035Z,99312.47
2023-04-15T08:19:10.664Z,99317.56
2023-04-15T08:21:37.343Z,99323.53
2023-04-15T08:24:04.260Z,99329.44
2023-04-15T08:26:30.874Z,99325.94
2023-04-15T08:28:57.611Z,99332.31
2023-04-15T08:31:24.372Z,99348.19
2023-04-15T08:33:52.607Z,99346.88
2023-04-15T08:36:20.134Z,99348.00
2023-04-15T08:38:46.833Z,99348.47
2023-04-15T08:41:27.475Z,99355.44
2023-04-15T08:43:58.342Z,99360.38
2023-04-15T08:46:25.594Z,99346.97
2023-04-15T08:48:56.526Z,99352.84
2023-04-15T08:51:25.066Z,99352.38
2023-04-15T08:53:52.738Z,99348.63
2023-04-15T08:56:20.360Z,99358.09
2023-04-15T08:58:47.818Z,99348.34
2023-04-15T09:01:14.932Z,99333.97
2023-04-15T09:03:42.531Z,99333.56
2023-04-15T09:06:09.488Z,99345.97
2023-04-15T09:08:36.174Z,99352.56
2023-04-15T09:11:03.447Z,99360.56
2023-04-15T09:13:30.609Z,99377.41
2023-04-15T09:16:00.183Z,99375.38
2023-04-15T09:18:31.626Z,99361.59
2023-04-15T09:21:11.227Z,99370.03
2023-04-15T09:23:39.806Z,99378.16
2023-04-15T09:26:07.360Z,99377.88
2023-04-15T09:28:41.854Z,99385.97
2023-04-15T09:31:08.643Z,99380.47
2023-04-15T09:33:35.326Z,99374.25
2023-04-15T09:36:05.802Z,99378.03
2023-04-15T09:38:32.979Z,99372.94
2023-04-15T09:40:59.938Z,99379.84
2023-04-15T09:43:40.043Z,99382.94
2023-04-15T09:46:06.921Z,99382.88
2023-04-15T09:48:33.741Z,99383.75
2023-04-15T09:51:01.993Z,99382.53
2023-04-15T09:53:31.648Z,99369.97
2023-04-15T09:56:03.288Z,99370.28
2023-04-15T09:58:35.768Z,99365.97
2023-04-15T10:01:05.429Z,99367.59
2023-04-15T10:03:35.649Z,99365.72
2023-04-15T10:06:03.845Z,99358.34
2023-04-15T10:08:33.054Z,99359.91
2023-04-15T10:11:02.022Z,99362.75
2023-04-15T10:13:33.474Z,99363.66
2023-04-15T10:16:15.363Z,99358.19
2023-04-15T10:18:46.466Z,99357.22
2023-04-15T10:21:18.840Z,99355.03
2023-04-15T10:23:46.327Z,99347.19
2023-04-15T10:26:15.005Z,99354.81
2023-04-15T10:28:42.174Z,99354.75
2023-04-15T10:31:12.204Z,99350.25
2023-04-15T10:33:39.953Z,99347.25
2023-04-15T10:36:07.967Z,99341.72
2023-04-15T10:38:39.886Z,99341.25
2023-04-15T10:41:12.801Z,99344.16
2023-04-15T10:43:39.658Z,99334.81
2023-04-15T10:46:06.907Z,99331.09
2023-04-15T10:48:33.697Z,99333.25
2023-04-15T10:51:03.994Z,99315.41
2023-04-15T10:53:31.964Z,99325.22
2023-04-15T10:55:58.873Z,99325.44
2023-04-15T10:58:26.187Z,99289.88
2023-04-15T11:00:54.043Z,99333.38
2023-04-15T11:03:48.085Z,99329.47
2023-04-15T11:06:14.983Z,99321.41
2023-04-15T11:08:59.488Z,99330.03
2023-04-15T11:12:05.669Z,99325.06
2023-04-15T11:14:34.654Z,99327.47
2023-04-15T11:17:01.598Z,99329.34
2023-04-15T11:19:36.285Z,99330.25
2023-04-15T11:22:12.609Z,99316.53
2023-04-15T11:24:50.666Z,99311.84
2023-04-15T11:27:24.122Z,99326.44
2023-04-15T11:29:50.800Z,99319.28
2023-04-15T11:32:17.654Z,99331.31
2023-04-15T11:34:46.730Z,99313.84
2023-04-15T11:37:13.887Z,99321.56
2023-04-15T11:39:43.592Z,99316.41
2023-04-15T11:42:19.273Z,99303.75
2023-04-15T11:44:46.044Z,99316.53
2023-04-15T11:47:25.157Z,99313.44
2023-04-15T11:49:51.907Z,99303.66
2023-04-15T11:52:19.125Z,99298.41
2023-04-15T11:54:45.761Z,99301.69
2023-04-15T11:57:12.513Z,99293.63
2023-04-15T11:59:45.864Z,99287.69
2023-04-15T12:02:14.382Z,99294.50
2023-04-15T12:04:41.588Z,99289.75
2023-04-15T12:07:08.844Z,99287.78
2023-04-15T12:09:38.266Z,99264.75
2023-04-15T12:12:04.993Z,99282.91
2023-04-15T12:14:32.989Z,99280.06
2023-04-15T12:17:05.071Z,99280.41
2023-04-15T12:19:40.462Z,99277.28
2023-04-15T12:22:15.644Z,99278.13
2023-04-15T12:24:44.423Z,99267.28
2023-04-15T12:27:12.481Z,99263.09
2023-04-15T12:29:40.913Z,99216.69
2023-04-15T12:32:10.890Z,99264.94
2023-04-15T12:34:41.822Z,99273.06
2023-04-15T12:37:12.263Z,99271.28
2023-04-15T12:39:41.344Z,99266.19
2023-04-15T12:42:09.087Z,99263.50
2023-04-15T12:44:36.755Z,99265.84
2023-04-15T12:47:04.422Z,99261.53
2023-04-15T12:49:32.801Z,99265.03
2023-04-15T12:52:01.350Z,99252.47
2023-04-15T12:54:29.394Z,99260.28
2023-04-15T12:56:56.716Z,99260.28
2023-04-15T12:59:26.407Z,99257.91
2023-04-15T13:01:54.224Z,99263.03
2023-04-15T13:04:21.990Z,99251.44
2023-04-15T13:06:48.933Z,99255.16
2023-04-15T13:09:15.915Z,99258.06
2023-04-15T13:11:43.110Z,99262.88
2023-04-15T13:14:11.769Z,99242.28
2023-04-15T13:16:39.054Z,99252.66
2023-04-15T13:19:05.757Z,99243.44
2023-04-15T13:21:35.759Z,99244.84
2023-04-15T13:24:03.407Z,99240.22
2023-04-15T13:26:31.338Z,99241.06
2023-04-15T13:28:58.040Z,99227.34
2023-04-15T13:31:24.722Z,99232.94
2023-04-15T13:33:51.358Z,99243.50
2023-04-15T13:36:18.099Z,99232.13
2023-04-15T13:38:44.760Z,99241.41
2023-04-15T13:41:11.380Z,99246.47
2023-04-15T13:43:38.069Z,99246.94
2023-04-15T13:46:04.960Z,99250.16
2023-04-15T13:48:31.674Z,99242.47
2023-04-15T13:50:58.365Z,99239.06
2023-04-15T13:53:28.205Z,99242.22
2023-04-15T13:56:06.816Z,99231.97
2023-04-15T13:58:33.584Z,99234.56
2023-04-15T14:01:00.636Z,99241.03
2023-04-15T14:03:28.313Z,99241.44
2023-04-15T14:05:56.409Z,99245.75
2023-04-15T14:08:24.821Z,99253.44
2023-04-15T14:10:51.495Z,99253.47
2023-04-15T14:13:19.775Z,99254.38
2023-04-15T14:15:47.735Z,99252.94
2023-04-15T14:18:14.407Z,99246.13
2023-04-15T14:20:41.177Z,99245.91
2023-04-15T14:23:08.130Z,99259.03
2023-04-15T14:25:34.846Z,99242.50
2023-04-15T14:28:03.611Z,99255.81
2023-04-15T14:30:30.374Z,99249.84
2023-04-15T14:32:57.075Z,99249.00
2023-04-15T14:35:26.661Z,99256.38
2023-04-15T14:37:54.330Z,99258.75
2023-04-15T14:40:21.235Z,99259.03
2023-04-15T14:42:48.121Z,99249.47
2023-04-15T14:45:14.952Z,99262.16
2023-04-15T14:47:41.731Z,99265.22
2023-04-15T14:53:03.196Z,99256.03
2023-04-15T14:55:29.949Z,99247.69
2023-04-15T14:57:56.631Z,99260.88
2023-04-15T15:00:23.276Z,99265.53
2023-04-15T15:02:50.060Z,99255.66
2023-04-15T15:05:16.848Z,99254.84
2023-04-15T15:07:43.721Z,99245.72
2023-04-15T15:10:10.666Z,99196.16
2023-04-15T15:12:37.364Z,99245.41
2023-04-15T15:15:15.586Z,99248.09
2023-04-15T15:17:51.939Z,99217.69
2023-04-15T15:20:19.432Z,99227.38
2023-04-15T15:22:46.318Z,99212.06
2023-04-15T15:25:12.984Z,99220.38
2023-04-15T15:27:39.813Z,99228.22
2023-04-15T15:30:07.016Z,99242.22
2023-04-15T15:32:33.803Z,99247.63
2023-04-15T15:35:00.548Z,99237.94
2023-04-15T15:37:27.186Z,99233.88
2023-04-15T15:39:53.882Z,99222.56
2023-04-15T15:42:20.571Z,99219.63
2023-04-15T15:44:49.297Z,99223.41
2023-04-15T15:47:16.986Z,99230.94
2023-04-15T15:49:43.794Z,99234.72
2023-04-15T15:52:11.280Z,99233.63
2023-04-15T15:54:37.965Z,99234.97
2023-04-15T15:57:04.699Z,99234.16
2023-04-15T15:59:33.174Z,99237.13
2023-04-15T16:02:02.631Z,99251.88
2023-04-15T16:04:29.858Z,99251.81
2023-04-15T16:06:56.671Z,99223.03
2023-04-15T16:09:23.366Z,99242.38
2023-04-15T16:11:50.040Z,99234.00
2023-04-15T16:14:16.790Z,99241.25
2023-04-15T16:16:43.533Z,99224.34
2023-04-15T16:19:10.187Z,99213.50
2023-04-15T16:21:36.814Z,99236.63
2023-04-15T16:24:03.549Z,99221.56
2023-04-15T16:26:30.204Z,99219.91
2023-04-15T16:28:56.843Z,99234.88
2023-04-15T16:31:23.639Z,99233.28
2023-04-15T16:33:50.368Z,99246.13
2023-04-15T16:36:17.024Z,99245.25
2023-04-15T16:38:45.439Z,99240.94
2023-04-15T16:41:12.056Z,99270.22
2023-04-15T16:43:38.646Z,99248.69
2023-04-15T16:46:05.392Z,99269.53
2023-04-15T16:48:32.097Z,99255.28
2023-04-15T16:50:58.769Z,99267.06
2023-04-15T16:53:25.516Z,99259.09
2023-04-15T16:55:52.215Z,99247.16
2023-04-15T16:58:18.851Z,99267.94
2023-04-15T17:00:45.628Z,99263.66
2023-04-15T17:03:12.519Z,99275.66
2023-04-15T17:05:39.527Z,99272.72
2023-04-15T17:08:06.202Z,99274.84
2023-04-15T17:10:32.878Z,99278.28
2023-04-15T17:12:59.780Z,99265.44
2023-04-15T17:15:27.306Z,99285.22
2023-04-15T17:17:54.376Z,99294.50
2023-04-15T17:20:21.168Z,99297.06
2023-04-15T17:22:48.838Z,99290.00
2023-04-15T17:25:15.756Z,99318.50
2023-04-15T17:27:42.420Z,99307.16
2023-04-15T17:30:09.907Z,99307.28
2023-04-15T17:32:37.359Z,99335.31
2023-04-15T17:35:06.578Z,99334.47
2023-04-15T17:37:34.191Z,99333.47
2023-04-15T17:40:00.979Z,99311.94
2023-04-15T17:42:27.655Z,99312.91
2023-04-15T17:44:54.317Z,99318.38
2023-04-15T17:47:21.110Z,99296.84
2023-04-15T17:49:47.830Z,99341.19
2023-04-15T17:52:14.574Z,99331.13
2023-04-15T17:54:41.266Z,99312.53
2023-04-15T17:57:07.952Z,99332.75
2023-04-15T17:59:34.668Z,99337.63
2023-04-15T18:02:01.443Z,99335.09
2023-04-15T18:04:28.602Z,99338.56
2023-04-15T18:06:55.353Z,99354.84
2023-04-15T18:09:22.244Z,99348.72
2023-04-15T18:11:49.201Z,99369.59
2023-04-15T18:14:27.090Z,99369.75
2023-04-15T18:17:00.108Z,99359.22
2023-04-15T18:19:26.947Z,99358.78
2023-04-15T18:21:53.591Z,99363.56
2023-04-15T18:24:21.016Z,99367.78
2023-04-15T18:26:49.204Z,99369.31
2023-04-15T18:29:16.517Z,99366.81
2023-04-15T18:31:43.454Z,99372.91
2023-04-15T18:34:10.480Z,99377.50
2023-04-15T18:36:37.220Z,99368.97
2023-04-15T18:39:04.576Z,99378.78
2023-04-15T18:41:31.488Z,99384.28
2023-04-15T18:43:58.143Z,99357.81
2023-04-15T18:46:24.933Z,99379.88
2023-04-15T18:48:51.602Z,99373.19
2023-04-15T18:51:18.264Z,99371.00
2023-04-15T18:53:44.943Z,99379.03
2023-04-15T18:56:11.641Z,99386.34
2023-04-15T18:59:25.303Z,99369.00
2023-04-15T19:01:31.039Z,99363.06
2023-04-15T19:03:57.961Z,99371.03
2023-04-15T19:06:24.799Z,99359.81
2023-04-15T19:08:52.085Z,99357.41
2023-04-15T19:11:18.759Z,99359.47
2023-04-15T19:13:45.406Z,99331.78
2023-04-15T19:16:12.210Z,99363.50
2023-04-15T19:18:38.893Z,99348.25
2023-04-15T19:21:06.002Z,99361.06
2023-04-15T19:23:32.778Z,99366.28
2023-04-15T19:25:59.496Z,99372.00
2023-04-15T19:28:28.313Z,99362.56
2023-04-15T19:30:55.181Z,99355.38
2023-04-15T19:33:22.027Z,99362.03
2023-04-15T19:35:50.193Z,99366.06
2023-04-15T19:38:17.120Z,99343.53
2023-04-15T19:40:43.896Z,99358.72
2023-04-15T19:43:10.505Z,99357.69
2023-04-15T19:45:37.337Z,99366.19
2023-04-15T19:48:06.132Z,99357.78
2023-04-15T19:50:33.035Z,99350.81
2023-04-15T19:52:59.802Z,99361.66
2023-04-15T19:55:26.537Z,99364.19
2023-04-15T19:57:53.233Z,99369.19
2023-04-15T20:00:20.134Z,99366.75
2023-04-15T20:02:46.962Z,99362.47
2023-04-15T20:05:13.998Z,99366.88
2023-04-15T20:07:42.771Z,99361.53
2023-04-15T20:10:12.812Z,99360.13
2023-04-15T20:12:50.079Z,99342.81
2023-04-15T20:15:20.165Z,99351.44
2023-04-15T20:17:46.908Z,99360.09
2023-04-15T20:20:13.661Z,99357.16
2023-04-15T20:22:40.338Z,99354.66
2023-04-15T20:25:07.677Z,99352.63
2023-04-15T20:27:34.377Z,99360.72
2023-04-15T20:30:01.279Z,99371.09
2023-04-15T20:32:28.478Z,99360.31
2023-04-15T20:34:55.327Z,99365.69
2023-04-15T20:37:22.486Z,99376.72
2023-04-15T20:39:49.275Z,99378.94
2023-04-15T20:42:16.073Z,99373.16
2023-04-15T20:44:42.871Z,99378.25
2023-04-15T20:47:09.666Z,99373.28
2023-04-15T20:49:37.884Z,99369.34
2023-04-15T20:52:06.561Z,99369.03
2023-04-15T20:54:33.301Z,99380.97
2023-04-15T20:57:01.425Z,99368.03
2023-04-15T20:59:28.295Z,99376.16
2023-04-15T21:01:57.029Z,99368.25
2023-04-15T21:04:24.577Z,99374.44
2023-04-15T21:06:52.395Z,99378.53
2023-04-15T21:09:19.199Z,99371.22
2023-04-15T21:12:00.327Z,99356.81
2023-04-15T21:14:28.171Z,99360.25
2023-04-15T21:16:54.932Z,99349.34
2023-04-15T21:19:21.579Z,99353.66
2023-04-15T21:21:48.289Z,99357.81
2023-04-15T21:24:15.036Z,99350.47
2023-04-15T21:26:41.653Z,99352.66
2023-04-15T21:29:11.115Z,99356.91
2023-04-15T21:31:38.525Z,99323.94
2023-04-15T21:34:05.438Z,99343.72
2023-04-15T21:36:32.707Z,99348.16
2023-04-15T21:39:00.026Z,99347.94
2023-04-15T21:41:27.213Z,99353.38
2023-04-15T21:43:53.998Z,99344.25
2023-04-15T21:46:24.413Z,99345.53
2023-04-15T21:48:55.529Z,99349.34
2023-04-15T21:51:22.536Z,99336.69
2023-04-15T21:53:49.302Z,99346.47
2023-04-15T21:56:16.055Z,99342.63
2023-04-15T21:58:43.156Z,99345.66
2023-04-15T22:01:09.860Z,99343.44
2023-04-15T22:03:36.801Z,99347.41
2023-04-15T22:06:04.144Z,99334.25
2023-04-15T22:08:36.056Z,99337.88
2023-04-15T22:11:20.670Z,99329.41
2023-04-15T22:13:47.318Z,99332.75
2023-04-15T22:16:14.077Z,99325.44
2023-04-15T22:18:40.720Z,99314.06
2023-04-15T22:21:07.970Z,99321.59
2023-04-15T22:23:34.605Z,99317.91
2023-04-15T22:26:01.469Z,99311.72
2023-04-15T22:28:28.106Z,99330.34
2023-04-15T22:30:54.814Z,99327.50
2023-04-15T22:33:21.683Z,99318.59
2023-04-15T22:35:48.305Z,99320.47
2023-04-15T22:38:14.962Z,99304.19
2023-04-15T22:40:41.787Z,99300.81
2023-04-15T22:43:08.687Z,99309.19
2023-04-15T22:45:35.396Z,99307.34
2023-04-15T22:48:02.708Z,99306.97
2023-04-15T22:50:29.364Z,99306.97
2023-04-15T22:52:56.063Z,99301.50
2023-04-15T22:55:22.983Z,99305.25
2023-04-15T22:57:49.663Z,99312.91
2023-04-15T23:00:16.408Z,99313.59
2023-04-15T23:02:43.224Z,99310.88
2023-04-15T23:05:12.449Z,99309.63
2023-04-15T23:07:40.402Z,99307.03
2023-04-15T23:10:08.148Z,99310.22
2023-04-15T23:12:34.940Z,99309.84
2023-04-15T23:15:01.699Z,99304.47
2023-04-15T23:17:28.408Z,99302.81
2023-04-15T23:19:55.091Z,99307.81
2023-04-15T23:22:21.754Z,99302.91
2023-04-15T23:24:48.476Z,99307.09
2023-04-15T23:27:15.174Z,99309.69
2023-04-15T23:29:42.117Z,99308.97
2023-04-15T23:32:08.750Z,99304.53
2023-04-15T23:34:35.454Z,99300.38
2023-04-15T23:37:02.179Z,99296.78
2023-04-15T23:39:30.423Z,99268.69
2023-04-15T23:41:57.239Z,99304.56
2023-04-15T23:44:23.896Z,99306.31
2023-04-15T23:46:51.463Z,99305.38
2023-04-15T23:49:20.247Z,99305.97
2023-04-15T23:51:47.285Z,99298.47
2023-04-15T23:54:15.486Z,99303.56
2023-04-15T23:56:42.160Z,99303.53
2023-04-15T23:59:09.125Z,99293.28
